Time;durP1;ratioP1;P1;durP2;ratioP2;P2;SDS_P1;SDS_P2;PMS_P1;PMS_P2;Temp;Humidity;BMP_temperature;BMP_pressure;BME280_temperature;BME280_humidity;BME280_pressure;Samples;Min_cycle;Max_cycle;Signal;HPM_P1;HPM_P2
2021/05/16 00:00:00;;;;;;;2.83;1.87;;;10.60;92.00;;;;;;5017576;28;20209;-91
2021/05/16 00:02:26;;;;;;;2.80;1.83;;;10.60;92.00;;;;;;5017849;28;20328;-92
2021/05/16 00:04:52;;;;;;;1.77;1.60;;;10.60;92.70;;;;;;5018626;28;20551;-91
2021/05/16 00:07:18;;;;;;;2.47;1.77;;;10.70;92.20;;;;;;5001134;28;20186;-91
2021/05/16 00:09:44;;;;;;;3.00;1.70;;;10.60;93.80;;;;;;5016874;28;20610;-91
2021/05/16 00:12:11;;;;;;;2.77;1.80;;;10.50;94.50;;;;;;5017114;28;20197;-90
2021/05/16 00:14:38;;;;;;;5.43;2.17;;;10.60;94.60;;;;;;5017322;28;20272;-91
2021/05/16 00:17:07;;;;;;;5.40;1.90;;;10.60;94.70;;;;;;5018026;28;20178;-91
2021/05/16 00:19:33;;;;;;;2.17;1.97;;;10.50;95.10;;;;;;5019678;28;20280;-91
2021/05/16 00:21:59;;;;;;;1.93;1.77;;;10.50;94.80;;;;;;5020064;28;20221;-90
2021/05/16 00:24:26;;;;;;;3.37;1.97;;;10.50;95.00;;;;;;5027763;28;20182;-92
2021/05/16 00:26:52;;;;;;;3.87;2.00;;;10.50;94.50;;;;;;5036079;28;20181;-90
2021/05/16 00:29:17;;;;;;;3.27;1.80;;;10.50;94.40;;;;;;5023307;28;20205;-92
2021/05/16 00:31:43;;;;;;;2.23;1.90;;;10.60;94.00;;;;;;5018578;28;20308;-90
2021/05/16 00:34:09;;;;;;;2.73;2.13;;;10.60;94.30;;;;;;5018838;28;20268;-90
2021/05/16 00:36:35;;;;;;;2.33;1.70;;;10.50;94.20;;;;;;5018884;28;20185;-90
2021/05/16 00:39:02;;;;;;;4.27;1.87;;;10.50;95.00;;;;;;5018821;28;20206;-92
2021/05/16 00:41:28;;;;;;;3.97;2.10;;;10.50;94.20;;;;;;5018456;28;20233;-91
2021/05/16 00:43:53;;;;;;;2.93;2.00;;;10.60;94.10;;;;;;5018088;28;20228;-91
2021/05/16 00:46:19;;;;;;;5.07;1.87;;;10.50;94.60;;;;;;5019900;28;20185;-91
2021/05/16 00:48:45;;;;;;;5.30;2.00;;;10.60;94.30;;;;;;5028188;28;20258;-91
2021/05/16 00:51:11;;;;;;;1.60;1.50;;;10.60;94.10;;;;;;5020475;28;20220;-91
2021/05/16 00:53:37;;;;;;;3.97;1.90;;;10.50;93.90;;;;;;5030225;28;20193;-91
2021/05/16 00:56:04;;;;;;;3.70;1.90;;;10.50;93.60;;;;;;5017508;28;20186;-91
2021/05/16 00:58:30;;;;;;;2.77;1.50;;;10.60;93.40;;;;;;5018404;28;20196;-91
2021/05/16 01:00:56;;;;;;;3.70;2.20;;;10.50;93.90;;;;;;5016894;28;20206;-91
2021/05/16 01:03:22;;;;;;;4.57;1.97;;;10.60;92.80;;;;;;5018292;28;20193;-92
2021/05/16 01:05:49;;;;;;;2.37;1.90;;;10.50;93.50;;;;;;5016970;28;20277;-91
2021/05/16 01:08:15;;;;;;;3.57;1.90;;;10.60;92.10;;;;;;5017485;28;20189;-91
2021/05/16 01:10:43;;;;;;;2.77;1.97;;;10.50;93.00;;;;;;5016951;28;20229;-91
2021/05/16 01:13:10;;;;;;;2.90;2.00;;;10.50;92.60;;;;;;5017544;28;20182;-90
2021/05/16 01:15:39;;;;;;;3.73;2.20;;;10.50;93.50;;;;;;5017843;28;20204;-91
2021/05/16 01:18:06;;;;;;;4.17;2.00;;;10.50;93.30;;;;;;5018266;28;20178;-89
2021/05/16 01:20:35;;;;;;;2.20;1.70;;;10.60;92.80;;;;;;5018111;28;20216;-89
2021/05/16 01:23:02;;;;;;;4.03;2.20;;;10.70;92.50;;;;;;4997324;28;20186;-90
2021/05/16 01:25:32;;;;;;;4.47;1.97;;;10.60;92.40;;;;;;4998463;28;20552;-90
2021/05/16 01:27:57;;;;;;;3.67;1.90;;;10.60;92.30;;;;;;5011142;28;20193;-90
2021/05/16 01:30:24;;;;;;;3.23;1.90;;;10.60;92.50;;;;;;5016871;28;20217;-90
2021/05/16 01:32:51;;;;;;;2.57;2.07;;;10.60;92.80;;;;;;5017203;28;20192;-90
2021/05/16 01:35:17;;;;;;;3.20;1.90;;;10.70;92.40;;;;;;5016610;28;20177;-90
2021/05/16 01:37:43;;;;;;;2.63;2.13;;;10.70;93.10;;;;;;5021170;28;20186;-90
2021/05/16 01:40:09;;;;;;;4.70;2.17;;;10.70;93.30;;;;;;5033507;28;20213;-90
2021/05/16 01:42:35;;;;;;;4.73;2.27;;;10.60;93.50;;;;;;5019708;28;20212;-90
2021/05/16 01:45:04;;;;;;;3.73;2.20;;;10.50;93.70;;;;;;5017089;28;20185;-90
2021/05/16 01:47:30;;;;;;;4.37;2.53;;;10.50;94.60;;;;;;5021778;28;20188;-91
2021/05/16 01:50:07;;;;;;;3.37;2.03;;;10.50;95.30;;;;;;5030838;28;20252;-90
2021/05/16 01:52:34;;;;;;;3.93;2.10;;;10.60;94.50;;;;;;5016099;28;20173;-90
2021/05/16 01:55:00;;;;;;;5.07;2.40;;;10.60;94.40;;;;;;5014514;28;20185;-90
2021/05/16 01:57:27;;;;;;;2.77;2.10;;;10.60;95.50;;;;;;5014385;28;20683;-90
2021/05/16 01:59:54;;;;;;;3.97;2.23;;;10.50;96.60;;;;;;5033908;28;20678;-90
2021/05/16 02:02:21;;;;;;;4.87;2.20;;;10.60;96.20;;;;;;5034471;28;20260;-92
2021/05/16 02:04:47;;;;;;;4.17;1.90;;;10.50;96.70;;;;;;5032884;28;20196;-90
2021/05/16 02:07:12;;;;;;;4.13;1.97;;;10.50;96.90;;;;;;5032978;28;20216;-91
2021/05/16 02:09:40;;;;;;;3.53;2.10;;;10.60;96.90;;;;;;5034320;28;20204;-91
2021/05/16 02:12:06;;;;;;;3.43;2.40;;;10.60;96.70;;;;;;5016470;28;20189;-90
2021/05/16 02:14:33;;;;;;;6.20;2.43;;;10.60;96.30;;;;;;5027467;28;20193;-91
2021/05/16 02:17:01;;;;;;;2.93;2.30;;;10.60;97.00;;;;;;5012225;28;20196;-91
2021/05/16 02:19:27;;;;;;;4.53;2.10;;;10.60;97.00;;;;;;5013023;28;20763;-91
2021/05/16 02:21:53;;;;;;;5.13;2.40;;;10.70;96.30;;;;;;5012885;28;20248;-91
2021/05/16 02:24:19;;;;;;;4.30;2.30;;;10.70;96.50;;;;;;5013113;28;20213;-91
2021/05/16 02:26:47;;;;;;;5.53;2.43;;;10.70;96.70;;;;;;5032450;22;20233;-89
2021/05/16 02:29:14;;;;;;;3.33;2.30;;;10.60;96.60;;;;;;5009763;28;20282;-89
2021/05/16 02:31:41;;;;;;;3.47;1.90;;;10.70;97.00;;;;;;5008571;28;20185;-90
2021/05/16 02:34:07;;;;;;;4.63;2.37;;;10.60;96.50;;;;;;5053866;28;20204;-89
2021/05/16 02:36:33;;;;;;;4.40;2.47;;;10.60;97.20;;;;;;5046434;28;20863;-89
2021/05/16 02:38:59;;;;;;;3.60;2.10;;;10.50;96.90;;;;;;5044426;28;20177;-89
2021/05/16 02:41:25;;;;;;;4.30;2.10;;;10.70;95.40;;;;;;5044810;28;20704;-90
2021/05/16 02:43:51;;;;;;;3.97;2.27;;;10.70;95.50;;;;;;5043531;28;20204;-89
2021/05/16 02:46:17;;;;;;;5.10;2.40;;;10.70;95.40;;;;;;5043152;28;20216;-89
2021/05/16 02:48:43;;;;;;;2.93;2.10;;;10.60;96.20;;;;;;5044700;28;20177;-90
2021/05/16 02:51:08;;;;;;;2.90;2.03;;;10.60;96.60;;;;;;5026776;28;20405;-90
2021/05/16 02:53:34;;;;;;;5.60;2.47;;;10.60;96.20;;;;;;5043657;28;20216;-89
2021/05/16 02:56:00;;;;;;;3.43;2.50;;;10.60;95.70;;;;;;5043686;28;20204;-89
2021/05/16 02:58:26;;;;;;;3.53;2.30;;;10.60;97.10;;;;;;5027065;28;20181;-90
2021/05/16 03:00:53;;;;;;;3.93;2.00;;;10.60;96.40;;;;;;5043035;28;20244;-89
2021/05/16 03:03:19;;;;;;;5.20;2.57;;;10.50;96.80;;;;;;5043031;28;20325;-89
2021/05/16 03:05:44;;;;;;;4.47;2.13;;;10.60;96.80;;;;;;5043110;28;20668;-89
2021/05/16 03:08:10;;;;;;;3.97;2.17;;;10.60;96.90;;;;;;5042733;28;20252;-89
2021/05/16 03:10:36;;;;;;;3.83;2.40;;;10.60;97.10;;;;;;5044055;28;20216;-89
2021/05/16 03:13:02;;;;;;;4.27;2.50;;;10.50;97.40;;;;;;5044084;28;20199;-89
2021/05/16 03:15:27;;;;;;;4.37;2.50;;;10.40;98.20;;;;;;5043341;28;20719;-89
2021/05/16 03:17:53;;;;;;;4.53;2.27;;;10.50;98.50;;;;;;5043973;28;20173;-88
2021/05/16 03:20:19;;;;;;;5.80;2.53;;;10.40;98.80;;;;;;5044031;28;20188;-89
2021/05/16 03:22:45;;;;;;;2.93;2.00;;;10.30;99.90;;;;;;5044005;28;20181;-89
2021/05/16 03:25:12;;;;;;;4.40;2.20;;;10.30;99.20;;;;;;5043543;28;20235;-90
2021/05/16 03:27:39;;;;;;;4.60;2.17;;;10.40;99.50;;;;;;5042814;28;20192;-89
2021/05/16 03:30:08;;;;;;;3.97;2.33;;;10.40;99.80;;;;;;5027481;28;20209;-89
2021/05/16 03:32:35;;;;;;;5.93;1.97;;;10.40;99.30;;;;;;5045742;28;20172;-89
2021/05/16 03:35:01;;;;;;;3.03;2.13;;;10.50;99.00;;;;;;5037730;28;20224;-90
2021/05/16 03:37:26;;;;;;;4.40;2.20;;;10.50;98.70;;;;;;5024241;28;20205;-89
2021/05/16 03:39:52;;;;;;;3.80;1.90;;;10.50;98.40;;;;;;5024456;28;20178;-89
2021/05/16 03:42:18;;;;;;;5.30;2.20;;;10.50;98.70;;;;;;5007595;28;20182;-90
2021/05/16 03:44:44;;;;;;;3.27;2.00;;;10.50;98.00;;;;;;5025513;28;20261;-89
2021/05/16 03:47:09;;;;;;;3.67;2.27;;;10.50;98.80;;;;;;5035932;28;20227;-91
2021/05/16 03:49:35;;;;;;;6.23;2.67;;;10.50;98.50;;;;;;5033267;28;20389;-90
2021/05/16 03:52:01;;;;;;;4.77;2.40;;;10.50;98.00;;;;;;5024543;28;20193;-90
2021/05/16 03:54:26;;;;;;;4.63;2.20;;;10.50;98.90;;;;;;5047589;28;20229;-91
2021/05/16 04:01:03;;;;;;;4.43;2.30;;;10.50;98.30;;;;;;5006504;28;20206;-95
2021/05/16 04:03:28;;;;;;;2.53;2.10;;;10.50;98.60;;;;;;5031013;23;20238;-89
2021/05/16 04:05:54;;;;;;;3.87;2.20;;;10.50;98.60;;;;;;4988306;28;20209;-89
2021/05/16 04:08:20;;;;;;;3.27;1.83;;;10.50;98.70;;;;;;5004690;28;20238;-88
2021/05/16 04:10:46;;;;;;;6.23;2.63;;;10.50;98.90;;;;;;5004391;28;20206;-88
2021/05/16 04:13:11;;;;;;;4.60;2.60;;;10.50;99.10;;;;;;5005595;28;20566;-88
2021/05/16 04:15:37;;;;;;;3.50;2.43;;;10.50;98.60;;;;;;5005691;28;20198;-90
2021/05/16 04:18:03;;;;;;;3.87;2.53;;;10.50;99.10;;;;;;5005447;28;20181;-89
2021/05/16 04:20:29;;;;;;;3.80;2.33;;;10.50;99.60;;;;;;5006330;28;20817;-88
2021/05/16 04:22:54;;;;;;;5.63;2.40;;;10.60;98.50;;;;;;5005409;28;20206;-89
2021/05/16 04:25:21;;;;;;;6.63;2.50;;;10.50;98.70;;;;;;5004687;28;20213;-89
2021/05/16 04:27:47;;;;;;;3.13;2.13;;;10.60;98.60;;;;;;5009368;28;20174;-89
2021/05/16 04:30:13;;;;;;;4.97;2.40;;;10.60;98.50;;;;;;5006424;28;20293;-88
2021/05/16 04:32:39;;;;;;;3.33;2.30;;;10.60;98.40;;;;;;5005259;28;20182;-89
2021/05/16 04:35:05;;;;;;;3.60;2.40;;;10.60;97.80;;;;;;5005281;28;20186;-88
2021/05/16 04:37:30;;;;;;;3.77;2.20;;;10.70;98.40;;;;;;5005119;28;20198;-89
2021/05/16 04:39:56;;;;;;;3.57;2.13;;;10.70;97.40;;;;;;5007589;28;20194;-90
2021/05/16 04:42:22;;;;;;;5.03;2.13;;;10.70;97.50;;;;;;5007649;28;20633;-89
2021/05/16 04:44:48;;;;;;;4.77;1.90;;;10.80;96.90;;;;;;5008480;28;20178;-89
2021/05/16 04:47:13;;;;;;;2.83;1.90;;;10.80;96.70;;;;;;5007200;28;20213;-89
2021/05/16 04:49:39;;;;;;;4.60;2.20;;;10.80;96.40;;;;;;5008622;28;20206;-89
2021/05/16 04:52:05;;;;;;;4.93;2.30;;;10.80;96.40;;;;;;5008797;28;20273;-89
2021/05/16 04:54:31;;;;;;;5.50;2.20;;;10.80;96.70;;;;;;5008649;28;20178;-89
2021/05/16 04:56:56;;;;;;;4.30;2.20;;;10.70;96.90;;;;;;5007063;28;20206;-89
2021/05/16 04:59:22;;;;;;;5.70;2.53;;;10.80;97.60;;;;;;5007813;28;20254;-89
2021/05/16 05:01:48;;;;;;;4.13;2.00;;;10.90;96.70;;;;;;5006562;28;20245;-89
2021/05/16 05:04:14;;;;;;;4.90;2.40;;;11.00;96.40;;;;;;4990833;28;20190;-88
2021/05/16 05:06:40;;;;;;;5.53;2.23;;;10.90;96.70;;;;;;5008273;28;20866;-88
2021/05/16 05:09:07;;;;;;;3.43;2.13;;;10.90;97.20;;;;;;5007050;28;20197;-88
2021/05/16 05:11:33;;;;;;;5.90;2.10;;;10.90;97.30;;;;;;5006257;28;20183;-89
2021/05/16 05:13:59;;;;;;;3.37;1.80;;;10.90;97.60;;;;;;4990996;28;20210;-90
2021/05/16 05:16:25;;;;;;;3.67;2.10;;;11.00;97.80;;;;;;4992794;28;20198;-88
2021/05/16 05:18:51;;;;;;;5.97;2.40;;;11.00;97.80;;;;;;4988139;28;20183;-89
2021/05/16 05:21:16;;;;;;;6.10;2.20;;;10.90;99.50;;;;;;4993809;28;20186;-90
2021/05/16 05:23:42;;;;;;;4.20;2.47;;;10.90;99.80;;;;;;5007053;28;20192;-88
2021/05/16 05:26:08;;;;;;;3.83;2.23;;;11.00;99.40;;;;;;5007686;28;20282;-90
2021/05/16 05:28:34;;;;;;;3.50;1.83;;;11.10;98.90;;;;;;4991007;28;20217;-89
2021/05/16 05:31:00;;;;;;;3.07;2.07;;;11.10;99.90;;;;;;5005629;28;20216;-90
2021/05/16 05:33:26;;;;;;;3.90;2.63;;;11.00;99.10;;;;;;4987409;28;20176;-89
2021/05/16 05:35:52;;;;;;;4.33;2.43;;;11.00;99.40;;;;;;4988613;28;20737;-89
2021/05/16 05:38:18;;;;;;;4.90;2.23;;;11.00;99.70;;;;;;4986954;28;20231;-89
2021/05/16 05:40:44;;;;;;;5.13;2.13;;;11.00;98.60;;;;;;4970954;28;20187;-89
2021/05/16 05:43:09;;;;;;;3.90;2.13;;;11.00;98.40;;;;;;4988278;28;20183;-89
2021/05/16 05:45:36;;;;;;;3.67;1.90;;;11.10;99.30;;;;;;4970758;28;20526;-90
2021/05/16 05:48:07;;;;;;;2.10;1.90;;;11.10;97.70;;;;;;4989141;28;20194;-88
2021/05/16 06:01:17;;;;;;;2.93;2.27;;;11.60;97.80;;;;;;4946156;29;20648;-90
2021/05/16 06:07:24;;;;;;;4.63;2.17;;;11.60;95.30;;;;;;4965580;28;20325;-89
2021/05/16 06:14:04;;;;;;;2.43;2.07;;;11.70;95.30;;;;;;5075364;23;20237;-90
2021/05/16 06:19:45;;;;;;;3.87;2.30;;;11.70;93.10;;;;;;5000162;28;20187;-89
2021/05/16 06:22:14;;;;;;;3.57;2.40;;;11.70;93.70;;;;;;4990868;28;20183;-89
2021/05/16 06:24:40;;;;;;;2.93;2.00;;;11.70;93.60;;;;;;4987919;28;20652;-89
2021/05/16 06:27:06;;;;;;;5.23;2.27;;;11.70;94.50;;;;;;5002390;28;20227;-89
2021/05/16 06:29:32;;;;;;;3.87;2.30;;;11.80;93.10;;;;;;4986227;28;20210;-89
2021/05/16 06:31:58;;;;;;;5.50;2.00;;;11.90;93.80;;;;;;4998566;28;20640;-89
2021/05/16 06:34:23;;;;;;;5.43;2.27;;;12.10;92.70;;;;;;4999658;28;20210;-91
2021/05/16 06:36:49;;;;;;;3.63;2.17;;;12.20;90.70;;;;;;5018444;28;20199;-91
2021/05/16 06:39:15;;;;;;;2.60;1.93;;;12.20;93.00;;;;;;5009089;28;20249;-89
2021/05/16 06:41:40;;;;;;;4.53;2.20;;;12.30;90.10;;;;;;5006686;28;20179;-89
2021/05/16 06:44:06;;;;;;;3.77;2.10;;;12.30;90.50;;;;;;5016804;28;20494;-91
2021/05/16 06:46:32;;;;;;;3.67;1.77;;;12.30;91.70;;;;;;5002581;28;20251;-91
2021/05/16 06:48:58;;;;;;;2.23;1.90;;;12.50;90.60;;;;;;4992987;28;20258;-88
2021/05/16 06:51:24;;;;;;;2.97;2.00;;;12.60;89.60;;;;;;4989335;28;20218;-89
2021/05/16 06:53:50;;;;;;;3.37;2.07;;;12.50;90.40;;;;;;5006687;28;20260;-89
2021/05/16 06:56:16;;;;;;;3.03;2.10;;;12.30;89.30;;;;;;5009402;28;20214;-89
2021/05/16 06:58:42;;;;;;;3.40;1.90;;;12.30;89.60;;;;;;5004664;28;20193;-89
2021/05/16 07:01:08;;;;;;;4.43;2.00;;;12.40;89.90;;;;;;5004412;28;20197;-89
2021/05/16 07:03:37;;;;;;;2.63;1.80;;;12.40;87.70;;;;;;5004836;28;20194;-89
2021/05/16 07:06:03;;;;;;;3.57;1.93;;;12.40;89.90;;;;;;4988066;28;20229;-89
2021/05/16 07:08:28;;;;;;;1.97;1.50;;;12.30;88.80;;;;;;5004901;28;20194;-89
2021/05/16 07:10:54;;;;;;;4.50;1.73;;;12.20;88.80;;;;;;5004311;28;20206;-88
2021/05/16 07:13:20;;;;;;;4.27;2.30;;;12.30;88.60;;;;;;5005442;28;20191;-90
2021/05/16 07:15:46;;;;;;;3.37;1.77;;;12.20;89.40;;;;;;5003795;28;20210;-90
2021/05/16 07:18:12;;;;;;;4.27;2.10;;;12.40;89.90;;;;;;5005658;28;20191;-90
2021/05/16 07:20:37;;;;;;;3.83;1.90;;;12.60;87.80;;;;;;5004278;28;20190;-89
2021/05/16 07:23:03;;;;;;;2.77;2.00;;;12.80;87.50;;;;;;5004536;28;20672;-89
2021/05/16 07:25:29;;;;;;;3.00;1.93;;;12.90;86.10;;;;;;5003685;28;20207;-89
2021/05/16 07:27:55;;;;;;;4.80;1.63;;;12.80;86.50;;;;;;4987779;28;20199;-88
2021/05/16 07:30:22;;;;;;;5.53;2.10;;;12.90;86.70;;;;;;5004239;28;20269;-88
2021/05/16 07:32:47;;;;;;;3.63;2.00;;;12.90;86.20;;;;;;5005666;28;20564;-88
2021/05/16 07:35:13;;;;;;;1.70;1.60;;;12.80;86.40;;;;;;5004537;28;20207;-88
2021/05/16 07:37:40;;;;;;;7.00;2.00;;;13.00;85.90;;;;;;5004218;28;20198;-88
2021/05/16 07:40:07;;;;;;;2.50;1.70;;;13.20;86.70;;;;;;5005288;28;20184;-88
2021/05/16 07:42:33;;;;;;;5.00;2.50;;;13.30;87.20;;;;;;5004718;28;20189;-89
2021/05/16 07:44:59;;;;;;;2.67;1.83;;;13.30;85.20;;;;;;5003771;28;20193;-89
2021/05/16 07:47:24;;;;;;;4.70;1.93;;;13.40;86.10;;;;;;5004043;28;20265;-89
2021/05/16 07:49:50;;;;;;;8.63;2.53;;;13.70;84.30;;;;;;5003097;28;20204;-88
2021/05/16 07:52:16;;;;;;;2.40;1.83;;;13.70;84.30;;;;;;5003310;28;20550;-87
2021/05/16 07:54:41;;;;;;;3.83;1.70;;;13.80;85.00;;;;;;5002257;28;20200;-88
2021/05/16 07:57:08;;;;;;;2.90;2.00;;;13.80;82.60;;;;;;5004034;28;20208;-88
2021/05/16 07:59:36;;;;;;;4.60;2.30;;;13.70;84.80;;;;;;5004648;28;20192;-89
2021/05/16 08:02:02;;;;;;;3.97;2.10;;;13.90;83.20;;;;;;5004887;28;20208;-88
2021/05/16 08:04:27;;;;;;;3.87;2.20;;;14.00;82.30;;;;;;5002538;28;20197;-89
2021/05/16 08:06:55;;;;;;;4.57;2.20;;;14.10;85.00;;;;;;5002903;28;20217;-89
2021/05/16 08:09:22;;;;;;;7.10;2.23;;;14.10;81.10;;;;;;5002217;28;20197;-87
2021/05/16 08:11:48;;;;;;;5.23;2.57;;;14.40;80.10;;;;;;5003985;28;20198;-89
2021/05/16 08:14:14;;;;;;;5.27;2.30;;;14.60;79.10;;;;;;5003299;28;20212;-88
2021/05/16 08:16:40;;;;;;;3.57;2.23;;;14.50;77.70;;;;;;5004788;28;20244;-89
2021/05/16 08:19:07;;;;;;;5.80;2.40;;;14.20;76.40;;;;;;5005012;28;20199;-88
2021/05/16 08:21:34;;;;;;;6.60;2.60;;;14.20;77.80;;;;;;4988217;28;20192;-88
2021/05/16 08:24:00;;;;;;;4.63;2.20;;;14.30;78.90;;;;;;5005607;28;20208;-88
2021/05/16 08:26:25;;;;;;;4.80;2.43;;;14.50;76.30;;;;;;5004207;28;20686;-88
2021/05/16 08:28:51;;;;;;;5.80;2.13;;;14.50;77.20;;;;;;5001216;28;20635;-87
2021/05/16 08:31:17;;;;;;;5.97;2.70;;;14.50;78.40;;;;;;5013056;28;20217;-88
2021/05/16 08:33:43;;;;;;;5.10;3.17;;;14.60;79.00;;;;;;5013470;28;20177;-88
2021/05/16 08:36:08;;;;;;;7.30;2.50;;;14.60;77.70;;;;;;5012816;28;20198;-88
2021/05/16 08:38:35;;;;;;;4.30;2.43;;;14.40;79.10;;;;;;5017710;28;20217;-87
2021/05/16 08:41:01;;;;;;;6.77;2.60;;;14.30;79.10;;;;;;5006699;28;20187;-89
2021/05/16 08:43:27;;;;;;;7.47;3.17;;;14.30;78.90;;;;;;5004697;28;20185;-89
2021/05/16 08:45:53;;;;;;;6.90;3.10;;;14.40;78.70;;;;;;5004645;28;20210;-88
2021/05/16 08:48:19;;;;;;;4.67;3.10;;;14.60;78.90;;;;;;5005549;28;20244;-89
2021/05/16 08:50:45;;;;;;;8.73;3.40;;;15.20;76.40;;;;;;5005341;28;20210;-89
2021/05/16 08:53:11;;;;;;;7.17;2.97;;;15.40;72.60;;;;;;5007720;28;20210;-90
2021/05/16 08:55:37;;;;;;;5.57;2.87;;;15.30;72.60;;;;;;5006497;28;20285;-89
2021/05/16 08:58:04;;;;;;;7.17;3.07;;;15.30;74.80;;;;;;5007141;28;20180;-90
2021/05/16 09:00:30;;;;;;;4.53;2.50;;;15.30;72.10;;;;;;4988508;28;20190;-89
2021/05/16 09:03:07;;;;;;;5.63;3.03;;;15.20;73.20;;;;;;5004572;28;20182;-89
2021/05/16 09:05:37;;;;;;;6.03;2.87;;;15.00;71.80;;;;;;5005942;28;20853;-90
2021/05/16 09:08:16;;;;;;;7.00;2.93;;;14.70;71.10;;;;;;5006292;28;20178;-88
2021/05/16 09:10:50;;;;;;;8.47;2.93;;;14.70;72.90;;;;;;5003150;28;20216;-89
2021/05/16 09:13:18;;;;;;;5.93;2.60;;;15.00;75.20;;;;;;5007594;28;20202;-88
2021/05/16 09:16:13;;;;;;;6.10;2.63;;;15.40;71.90;;;;;;4988029;28;20684;-89
2021/05/16 09:18:40;;;;;;;4.83;2.70;;;15.50;69.70;;;;;;5007125;28;20184;-89
2021/05/16 09:21:28;;;;;;;3.57;2.43;;;15.60;68.40;;;;;;5018339;28;20191;-89
2021/05/16 09:24:03;;;;;;;6.30;3.10;;;15.50;71.50;;;;;;5014545;28;20197;-90
2021/05/16 09:26:48;;;;;;;7.23;2.60;;;15.30;71.10;;;;;;5006063;28;20206;-90
2021/05/16 09:29:20;;;;;;;7.63;2.80;;;15.10;74.60;;;;;;5007081;23;20261;-92
2021/05/16 09:31:49;;;;;;;6.50;2.70;;;14.80;74.50;;;;;;4989944;28;20188;-92
2021/05/16 09:34:15;;;;;;;5.47;2.33;;;14.40;77.10;;;;;;4980099;28;20213;-92
2021/05/16 09:36:45;;;;;;;5.47;2.93;;;14.20;73.80;;;;;;4999296;28;20558;-92
2021/05/16 09:39:22;;;;;;;4.67;2.80;;;14.00;76.50;;;;;;5005989;28;20237;-92
2021/05/16 09:42:06;;;;;;;5.23;2.77;;;14.10;75.70;;;;;;4982440;28;20669;-92
2021/05/16 09:44:32;;;;;;;5.27;2.33;;;13.90;78.40;;;;;;5002059;28;20671;-94
2021/05/16 09:47:16;;;;;;;7.87;2.50;;;14.00;77.80;;;;;;4998944;28;20216;-92
2021/05/16 09:49:45;;;;;;;6.27;2.50;;;14.30;75.00;;;;;;4999666;28;20257;-93
2021/05/16 09:52:18;;;;;;;5.87;2.93;;;14.50;78.40;;;;;;4988542;28;20200;-92
2021/05/16 09:55:09;;;;;;;7.17;2.57;;;14.80;76.90;;;;;;5000650;28;20187;-93
2021/05/16 09:57:40;;;;;;;6.77;3.10;;;15.30;77.20;;;;;;4999269;28;20182;-92
2021/05/16 10:00:10;;;;;;;4.93;2.50;;;15.60;71.90;;;;;;5000714;28;20238;-93
2021/05/16 10:02:37;;;;;;;4.77;2.60;;;15.60;71.50;;;;;;5011232;28;20190;-93
2021/05/16 10:05:06;;;;;;;6.37;2.90;;;15.50;71.30;;;;;;5002214;28;20228;-93
2021/05/16 10:07:32;;;;;;;7.83;2.87;;;15.40;73.10;;;;;;5022816;28;20253;-92
2021/05/16 10:10:01;;;;;;;8.53;3.00;;;15.40;75.20;;;;;;5011067;28;20221;-93
2021/05/16 10:12:27;;;;;;;6.67;2.60;;;15.40;73.00;;;;;;5002982;28;20179;-93
2021/05/16 10:15:02;;;;;;;7.77;2.87;;;15.60;73.00;;;;;;5008913;28;20217;-93
2021/05/16 10:17:32;;;;;;;6.07;2.67;;;16.00;71.20;;;;;;5022285;28;20192;-93
2021/05/16 10:19:58;;;;;;;6.90;3.23;;;16.70;66.70;;;;;;5022219;28;20251;-93
2021/05/16 10:22:27;;;;;;;4.87;2.50;;;16.90;67.10;;;;;;5022758;28;20209;-93
2021/05/16 10:24:54;;;;;;;6.80;3.00;;;17.00;66.40;;;;;;5005997;28;20204;-92
2021/05/16 10:27:22;;;;;;;7.57;2.67;;;17.10;65.20;;;;;;5005536;28;20224;-93
2021/05/16 10:30:00;;;;;;;3.80;2.20;;;17.30;61.80;;;;;;5017441;28;20231;-93
2021/05/16 10:32:34;;;;;;;7.03;2.73;;;17.60;63.40;;;;;;5009698;28;20182;-93
2021/05/16 10:35:06;;;;;;;6.87;2.70;;;18.00;60.70;;;;;;5021260;28;20190;-93
2021/05/16 10:37:43;;;;;;;7.53;2.63;;;17.80;63.10;;;;;;5019280;28;20178;-93
2021/05/16 10:40:12;;;;;;;5.10;2.53;;;17.30;62.80;;;;;;5021318;28;20300;-94
2021/05/16 10:42:40;;;;;;;6.60;2.70;;;17.20;62.40;;;;;;5024983;28;20189;-94
2021/05/16 10:45:15;;;;;;;6.10;2.67;;;17.20;62.40;;;;;;5018692;28;20182;-93
2021/05/16 10:47:53;;;;;;;4.93;3.07;;;17.50;62.80;;;;;;5018486;28;20596;-94
2021/05/16 10:50:25;;;;;;;7.60;3.03;;;17.50;62.40;;;;;;5020784;28;20218;-94
2021/05/16 10:52:59;;;;;;;4.43;2.50;;;17.40;61.60;;;;;;5021496;28;20174;-94
2021/05/16 10:55:44;;;;;;;3.77;2.23;;;17.30;61.70;;;;;;5018548;28;20188;-94
2021/05/16 10:58:32;;;;;;;3.97;2.67;;;17.90;59.30;;;;;;5014404;28;20297;-94
2021/05/16 11:01:06;;;;;;;6.03;2.80;;;18.10;58.70;;;;;;5012993;28;20193;-93
2021/05/16 11:03:46;;;;;;;5.70;2.80;;;18.20;58.60;;;;;;5013172;28;20189;-94
2021/05/16 11:06:13;;;;;;;5.47;2.47;;;18.80;58.20;;;;;;5013183;28;20184;-93
2021/05/16 11:08:38;;;;;;;5.67;2.60;;;18.70;56.40;;;;;;5010923;28;20210;-94
2021/05/16 11:11:33;;;;;;;6.27;2.73;;;19.00;56.60;;;;;;5010544;28;20213;-94
2021/05/16 11:14:00;;;;;;;5.20;2.70;;;18.80;54.10;;;;;;5012153;28;20264;-93
2021/05/16 11:16:26;;;;;;;6.77;2.47;;;18.50;54.00;;;;;;5011406;28;20319;-93
2021/05/16 11:18:52;;;;;;;4.73;2.20;;;18.60;56.80;;;;;;5010573;28;20295;-94
2021/05/16 11:21:17;;;;;;;6.07;2.37;;;18.60;53.70;;;;;;5012316;28;20198;-93
2021/05/16 11:23:47;;;;;;;4.43;2.50;;;18.50;56.90;;;;;;5012017;28;20185;-94
2021/05/16 11:26:14;;;;;;;13.10;2.90;;;18.80;54.80;;;;;;4994516;28;20193;-94
2021/05/16 11:28:55;;;;;;;3.77;2.50;;;19.30;54.70;;;;;;5010629;28;20221;-94
2021/05/16 11:31:22;;;;;;;5.03;2.33;;;19.20;54.50;;;;;;5011544;28;20538;-94
2021/05/16 11:33:51;;;;;;;5.93;2.60;;;19.90;50.40;;;;;;5012270;28;20645;-94
2021/05/16 11:36:19;;;;;;;4.65;2.47;;;20.30;53.90;;;;;;4995137;28;20185;-93
2021/05/16 11:38:47;;;;;;;4.07;2.63;;;20.20;49.70;;;;;;5012016;28;20700;-94
2021/05/16 11:41:36;;;;;;;4.53;2.55;;;19.70;48.00;;;;;;5036275;28;20176;-96
2021/05/16 11:44:08;;;;;;;4.22;2.20;;;20.00;47.70;;;;;;5032112;28;20173;-93
2021/05/16 11:46:38;;;;;;;3.47;2.20;;;19.90;46.40;;;;;;5019316;28;20249;-93
2021/05/16 11:49:03;;;;;;;4.10;2.40;;;20.00;48.80;;;;;;5017068;28;20206;-94
2021/05/16 11:51:32;;;;;;;7.43;2.67;;;19.50;48.90;;;;;;5020718;28;20211;-94
2021/05/16 11:54:04;;;;;;;5.40;2.30;;;19.60;50.60;;;;;;5023289;28;20239;-94
2021/05/16 11:56:36;;;;;;;4.57;2.37;;;19.60;50.50;;;;;;5021596;28;20183;-93
2021/05/16 11:59:06;;;;;;;7.03;2.60;;;19.30;49.90;;;;;;5022969;28;20257;-94
2021/05/16 12:01:37;;;;;;;3.40;2.20;;;19.10;51.20;;;;;;5020487;28;20188;-93
2021/05/16 12:04:05;;;;;;;2.67;1.93;;;19.20;52.60;;;;;;5000669;28;20187;-93
2021/05/16 12:06:41;;;;;;;3.73;2.40;;;19.00;51.70;;;;;;5004995;28;20251;-92
2021/05/16 12:09:10;;;;;;;4.67;2.53;;;18.80;53.20;;;;;;5003112;28;20258;-92
2021/05/16 12:11:38;;;;;;;3.93;2.13;;;18.70;54.90;;;;;;4998183;28;20296;-93
2021/05/16 12:14:18;;;;;;;6.67;2.70;;;18.80;53.90;;;;;;4999623;28;20252;-94
2021/05/16 12:16:51;;;;;;;4.63;2.10;;;18.90;55.00;;;;;;5005047;28;20167;-94
2021/05/16 12:19:39;;;;;;;4.50;2.30;;;18.80;52.50;;;;;;5003162;28;20725;-92
2021/05/16 12:22:06;;;;;;;4.17;2.50;;;18.90;53.20;;;;;;5003327;28;20234;-92
2021/05/16 12:24:34;;;;;;;2.57;2.00;;;19.40;52.00;;;;;;5003605;28;20258;-92
2021/05/16 12:27:01;;;;;;;4.53;2.40;;;19.50;51.70;;;;;;5007776;28;20217;-92
2021/05/16 12:29:30;;;;;;;2.78;2.22;;;19.80;51.60;;;;;;5002808;28;20701;-93
2021/05/16 12:31:56;;;;;;;4.10;2.40;;;19.80;49.50;;;;;;5002911;28;20237;-92
2021/05/16 12:34:24;;;;;;;3.47;2.20;;;19.80;50.20;;;;;;4969417;28;20183;-94
2021/05/16 12:36:56;;;;;;;6.07;2.97;;;19.80;52.70;;;;;;5001987;28;20189;-91
2021/05/16 12:39:40;;;;;;;6.77;2.70;;;19.60;51.20;;;;;;4985827;28;20208;-92
2021/05/16 12:42:30;;;;;;;4.50;2.58;;;19.40;52.40;;;;;;5007344;28;20192;-94
2021/05/16 12:45:15;;;;;;;4.10;1.90;;;19.40;50.20;;;;;;5014695;28;20198;-92
2021/05/16 12:47:41;;;;;;;3.07;2.20;;;18.90;50.70;;;;;;5015416;28;20179;-93
2021/05/16 12:50:11;;;;;;;3.22;2.22;;;19.20;51.50;;;;;;5017994;28;20748;-93
2021/05/16 12:52:37;;;;;;;4.15;2.35;;;19.50;49.60;;;;;;4989420;28;20693;-93
2021/05/16 12:55:05;;;;;;;5.97;2.50;;;19.90;50.20;;;;;;5006153;28;20203;-93
2021/05/16 13:00:07;;;;;;;3.70;1.87;;;19.40;50.50;;;;;;4985094;28;20209;-92
2021/05/16 13:02:38;;;;;;;4.07;2.25;;;19.50;48.00;;;;;;5006654;28;20218;-92
2021/05/16 13:05:15;;;;;;;2.28;1.90;;;20.20;48.50;;;;;;5007163;28;20580;-93
2021/05/16 13:07:47;;;;;;;4.05;2.30;;;19.80;48.60;;;;;;5002650;28;20187;-93
2021/05/16 13:10:34;;;;;;;6.83;3.03;;;19.90;47.80;;;;;;5020743;28;20252;-93
2021/05/16 13:13:19;;;;;;;2.63;1.70;;;20.20;47.60;;;;;;5020572;28;20186;-93
2021/05/16 13:15:53;;;;;;;4.60;2.10;;;19.70;47.60;;;;;;5021542;28;20287;-93
2021/05/16 13:18:45;;;;;;;3.10;1.90;;;19.60;51.10;;;;;;4999803;28;20202;-93
2021/05/16 13:21:19;;;;;;;2.57;1.80;;;19.60;47.50;;;;;;4983403;28;20192;-91